Time;durP1;ratioP1;P1;durP2;ratioP2;P2;SDS_P1;SDS_P2;PMS_P1;PMS_P2;Temp;Humidity;BMP_temperature;BMP_pressure;BME280_temperature;BME280_humidity;BME280_pressure;Samples;Min_cycle;Max_cycle;Signal;HPM_P1;HPM_P2
2022/10/17 00:00:08;;;;;;;11.30;8.90;;;;;;;13.45;73.79;97731.50;104977;1310;54061;-76
2022/10/17 00:03:00;;;;;;;10.50;8.90;;;;;;;13.43;73.77;97728.63;105044;1306;22471;-76
2022/10/17 00:05:32;;;;;;;11.00;8.10;;;;;;;13.40;73.90;97726.24;105002;1309;22510;-76
2022/10/17 00:08:03;;;;;;;10.30;8.80;;;;;;;13.41;74.08;97724.96;105013;1306;25432;-76
2022/10/17 00:10:34;;;;;;;10.90;9.00;;;;;;;13.45;74.03;97727.50;104922;1292;22471;-76
2022/10/17 00:13:05;;;;;;;11.70;7.80;;;;;;;13.48;73.85;97727.55;105015;1306;24327;-76
2022/10/17 00:15:42;;;;;;;13.60;9.40;;;;;;;13.49;73.94;97724.23;105089;1298;22492;-76
2022/10/17 00:18:14;;;;;;;13.00;8.20;;;;;;;13.48;73.89;97724.35;105068;1297;22460;-76
2022/10/17 00:20:45;;;;;;;11.30;7.30;;;;;;;13.47;73.94;97726.96;105071;1306;25583;-76
2022/10/17 00:23:16;;;;;;;9.80;7.90;;;;;;;13.51;73.98;97725.27;105093;1311;22470;-76
2022/10/17 00:25:48;;;;;;;14.90;9.50;;;;;;;13.49;73.83;97732.66;105054;1310;22499;-76
2022/10/17 00:28:19;;;;;;;12.00;8.70;;;;;;;13.47;74.04;97731.34;105097;1286;22480;-76
2022/10/17 00:30:57;;;;;;;11.70;8.50;;;;;;;13.46;73.98;97733.30;105006;1307;32871;-76
2022/10/17 00:33:28;;;;;;;14.10;8.20;;;;;;;13.40;74.08;97728.96;105006;1296;22472;-76
2022/10/17 00:36:09;;;;;;;12.10;8.70;;;;;;;13.39;74.12;97730.23;105017;1305;22950;-76
2022/10/17 00:38:41;;;;;;;11.90;8.60;;;;;;;13.38;74.12;97731.77;104954;1306;24288;-76
2022/10/17 00:41:18;;;;;;;11.30;8.40;;;;;;;13.36;74.25;97739.44;105009;1299;22512;-76
2022/10/17 00:43:55;;;;;;;12.10;8.20;;;;;;;13.33;74.30;97741.73;104957;1295;22636;-76
2022/10/17 00:46:30;;;;;;;9.80;6.40;;;;;;;13.29;74.43;97739.77;105008;1298;22467;-76
2022/10/17 00:49:05;;;;;;;11.10;8.10;;;;;;;13.28;74.53;97739.52;104931;1298;22511;-76
2022/10/17 00:51:41;;;;;;;12.70;7.90;;;;;;;13.27;74.66;97738.83;104852;1296;179491;-77
2022/10/17 00:54:16;;;;;;;11.20;8.70;;;;;;;13.26;74.58;97739.20;104984;1287;22521;-77
2022/10/17 00:56:49;;;;;;;12.10;8.00;;;;;;;13.26;74.64;97736.33;104992;1306;22471;-76
2022/10/17 00:59:23;;;;;;;10.20;8.40;;;;;;;13.27;74.57;97730.89;104965;1296;22512;-76
2022/10/17 01:02:02;;;;;;;11.70;8.90;;;;;;;13.25;74.53;97735.74;104997;1308;22473;-77
2022/10/17 01:04:33;;;;;;;10.70;8.30;;;;;;;13.22;74.68;97735.39;104979;1306;22490;-76
2022/10/17 01:07:04;;;;;;;8.90;5.90;;;;;;;13.21;74.59;97731.09;105001;1303;22601;-76
2022/10/17 01:09:36;;;;;;;12.20;9.30;;;;;;;13.24;74.74;97723.75;104996;1305;22458;-76
2022/10/17 01:12:15;;;;;;;12.70;8.00;;;;;;;13.33;74.50;97728.05;105119;1291;23410;-76
2022/10/17 01:14:58;;;;;;;12.10;8.60;;;;;;;13.39;74.24;97721.88;105103;1299;22555;-76
2022/10/17 01:17:41;;;;;;;11.90;8.40;;;;;;;13.41;74.08;97725.55;105085;1296;22507;-76
2022/10/17 01:21:00;;;;;;;12.20;8.30;;;;;;;13.41;74.07;97725.77;104990;1302;22505;-76
2022/10/17 01:23:57;;;;;;;12.60;8.80;;;;;;;13.43;73.91;97728.85;105010;1305;24176;-76
2022/10/17 01:26:43;;;;;;;11.60;7.90;;;;;;;13.40;73.73;97730.39;104988;1305;22473;-76
2022/10/17 01:29:47;;;;;;;11.70;8.90;;;;;;;13.39;73.78;97734.23;105007;1306;22481;-76
2022/10/17 01:32:22;;;;;;;11.60;8.80;;;;;;;13.35;73.78;97734.81;105049;1306;25458;-76
2022/10/17 01:34:58;;;;;;;11.50;9.20;;;;;;;13.36;73.76;97732.56;105072;1287;22490;-76
2022/10/17 01:37:34;;;;;;;12.30;8.30;;;;;;;13.33;73.70;97732.09;105065;1305;22464;-76
2022/10/17 01:40:12;;;;;;;14.70;8.20;;;;;;;13.28;73.85;97736.21;104953;1301;22483;-76
2022/10/17 01:42:48;;;;;;;12.20;8.60;;;;;;;13.27;73.88;97737.27;105020;1299;22470;-76
2022/10/17 01:45:30;;;;;;;10.80;8.60;;;;;;;13.28;73.97;97731.25;105036;1277;22488;-76
2022/10/17 01:48:08;;;;;;;10.90;8.90;;;;;;;13.32;73.95;97731.30;104972;1305;22489;-76
2022/10/17 01:50:45;;;;;;;11.30;8.60;;;;;;;13.33;73.93;97732.26;104979;1305;25606;-77
2022/10/17 01:53:22;;;;;;;12.30;6.90;;;;;;;13.31;73.96;97733.38;105060;1305;22544;-76
2022/10/17 01:55:58;;;;;;;11.90;8.60;;;;;;;13.29;73.84;97733.02;105005;1295;22619;-76
2022/10/17 01:58:32;;;;;;;12.10;7.90;;;;;;;13.23;73.91;97735.52;104984;1295;25380;-76
2022/10/17 02:01:08;;;;;;;14.10;9.20;;;;;;;13.23;74.17;97735.94;105005;1287;25363;-77
2022/10/17 02:03:43;;;;;;;11.00;7.60;;;;;;;13.23;73.99;97740.79;105019;1306;22462;-76
2022/10/17 02:06:14;;;;;;;11.30;9.40;;;;;;;13.18;74.15;97735.61;104971;1284;25342;-76
2022/10/17 02:08:47;;;;;;;11.60;8.60;;;;;;;13.16;74.02;97740.87;104899;1306;83776;-77
2022/10/17 02:11:25;;;;;;;13.00;9.00;;;;;;;13.13;74.29;97736.45;104975;1291;22587;-76
2022/10/17 02:14:14;;;;;;;10.90;7.60;;;;;;;13.14;74.31;97732.73;105024;1283;25391;-76
2022/10/17 02:16:55;;;;;;;11.10;7.30;;;;;;;13.22;74.32;97744.29;104997;1306;22509;-76
2022/10/17 02:19:51;;;;;;;12.30;9.00;;;;;;;13.23;74.18;97742.86;104956;1298;23247;-76
2022/10/17 02:22:30;;;;;;;11.30;8.90;;;;;;;13.24;74.16;97743.40;105028;1305;22490;-77
2022/10/17 02:25:09;;;;;;;11.40;9.40;;;;;;;13.24;74.08;97740.64;105010;1304;22529;-77
2022/10/17 02:27:49;;;;;;;12.30;8.60;;;;;;;13.23;74.04;97739.61;105034;1305;22555;-76
2022/10/17 02:30:29;;;;;;;12.20;8.90;;;;;;;13.27;73.96;97740.73;104995;1298;22498;-76
2022/10/17 02:33:00;;;;;;;;;;;;;;;13.26;73.78;97747.52;105029;1304;22482;-76
2022/10/17 02:35:35;;;;;;;10.50;8.50;;;;;;;13.21;73.87;97740.99;105056;1305;22686;-76
2022/10/17 02:38:08;;;;;;;10.90;8.50;;;;;;;13.18;73.72;97743.59;105064;1305;22487;-76
2022/10/17 02:40:42;;;;;;;11.30;8.10;;;;;;;13.15;73.95;97744.02;104980;1305;22496;-76
2022/10/17 02:43:14;;;;;;;12.30;8.00;;;;;;;13.12;73.91;97748.91;105010;1305;22472;-76
2022/10/17 02:45:46;;;;;;;11.40;9.00;;;;;;;13.16;74.02;97751.25;105022;1305;22523;-77
2022/10/17 02:48:25;;;;;;;9.60;7.70;;;;;;;13.18;73.90;97749.62;104993;1296;22474;-76
2022/10/17 02:51:04;;;;;;;12.80;9.20;;;;;;;13.19;73.90;97755.33;104988;1305;22770;-76
2022/10/17 02:53:44;;;;;;;11.70;6.80;;;;;;;13.20;73.92;97751.06;104990;1296;24278;-76
2022/10/17 02:56:21;;;;;;;11.40;7.80;;;;;;;13.23;73.92;97751.70;104973;1296;23786;-76
2022/10/17 02:58:57;;;;;;;11.00;8.40;;;;;;;13.25;73.88;97756.94;104972;1300;22487;-76
2022/10/17 03:01:29;;;;;;;13.10;9.50;;;;;;;13.25;73.78;97754.59;105011;1305;22478;-76
2022/10/17 03:04:12;;;;;;;11.10;9.00;;;;;;;13.20;73.67;97757.28;105008;1290;22521;-76
2022/10/17 03:06:44;;;;;;;14.00;9.10;;;;;;;13.13;73.82;97753.08;105027;1304;22481;-76
2022/10/17 03:09:16;;;;;;;13.80;8.40;;;;;;;13.03;73.92;97753.64;104981;1305;22472;-76
2022/10/17 03:11:47;;;;;;;9.80;8.60;;;;;;;12.97;74.10;97755.55;105026;1290;22614;-76
2022/10/17 03:14:18;;;;;;;10.20;8.30;;;;;;;12.94;74.28;97762.26;105029;1291;22470;-76
2022/10/17 03:16:49;;;;;;;10.70;8.60;;;;;;;12.93;74.37;97760.65;105011;1305;25468;-76
2022/10/17 03:19:20;;;;;;;8.80;7.40;;;;;;;12.96;74.45;97762.70;104950;1296;22587;-76
2022/10/17 03:21:51;;;;;;;12.40;9.30;;;;;;;12.96;74.46;97767.02;105035;1298;22499;-76
2022/10/17 03:24:22;;;;;;;12.70;10.40;;;;;;;12.94;74.58;97769.59;105019;1297;22468;-76
2022/10/17 03:26:53;;;;;;;11.20;8.90;;;;;;;12.97;74.72;97773.83;104999;1287;23482;-77
2022/10/17 03:29:24;;;;;;;12.00;9.20;;;;;;;13.01;74.74;97771.05;104984;1305;28069;-76
2022/10/17 03:31:57;;;;;;;13.00;9.60;;;;;;;13.05;74.61;97780.36;104985;1299;22517;-76
2022/10/17 03:34:28;;;;;;;11.70;8.80;;;;;;;13.01;74.55;97783.03;105003;1284;22954;-76
2022/10/17 03:36:59;;;;;;;11.40;9.00;;;;;;;12.96;74.72;97784.95;104978;1296;22580;-76
2022/10/17 03:39:30;;;;;;;10.80;9.20;;;;;;;12.92;74.85;97781.14;104943;1300;22478;-76
2022/10/17 03:42:02;;;;;;;9.80;7.50;;;;;;;12.89;74.95;97785.52;105003;1305;22486;-76
2022/10/17 03:44:33;;;;;;;12.40;8.30;;;;;;;12.84;75.15;97790.56;104995;1305;24317;-76
2022/10/17 03:47:04;;;;;;;11.20;9.40;;;;;;;12.72;75.48;97786.98;104991;1305;22518;-76
2022/10/17 03:49:36;;;;;;;11.30;9.40;;;;;;;12.66;75.77;97792.66;105001;1290;25111;-76
2022/10/17 03:52:10;;;;;;;9.90;7.80;;;;;;;12.66;75.94;97794.98;105065;1297;22488;-76
2022/10/17 03:54:42;;;;;;;13.80;9.10;;;;;;;12.67;76.08;97794.05;105043;1291;24270;-76
2022/10/17 03:57:15;;;;;;;11.50;7.10;;;;;;;12.67;76.06;97794.25;105094;1304;22630;-76
2022/10/17 03:59:46;;;;;;;12.80;9.30;;;;;;;12.63;76.18;97797.80;105012;1284;22462;-76
2022/10/17 04:02:18;;;;;;;12.10;9.30;;;;;;;12.60;76.35;97804.17;105000;1298;22539;-76
2022/10/17 04:04:49;;;;;;;11.00;7.60;;;;;;;12.62;76.41;97798.54;104983;1289;22479;-76
2022/10/17 04:07:20;;;;;;;15.80;9.30;;;;;;;12.63;76.34;97802.95;105006;1304;24444;-76
2022/10/17 04:09:51;;;;;;;16.90;8.90;;;;;;;12.65;76.39;97797.75;105008;1290;22484;-76
2022/10/17 04:12:22;;;;;;;38.00;16.10;;;;;;;12.64;76.45;97800.77;105069;1304;22484;-76
2022/10/17 04:14:53;;;;;;;13.80;8.10;;;;;;;12.67;76.56;97795.21;105066;1304;23837;-76
2022/10/17 04:17:24;;;;;;;12.70;8.80;;;;;;;12.77;76.31;97798.05;105054;1290;23140;-76
2022/10/17 04:19:55;;;;;;;10.90;9.40;;;;;;;12.87;76.06;97802.65;105029;1297;22482;-76
2022/10/17 04:22:26;;;;;;;10.70;7.10;;;;;;;12.90;75.82;97807.29;105061;1284;22545;-76
2022/10/17 04:24:58;;;;;;;12.60;9.50;;;;;;;12.94;75.71;97809.53;105077;1304;22452;-76
2022/10/17 04:27:29;;;;;;;11.70;8.50;;;;;;;12.97;75.48;97819.08;105071;1304;22536;-76
2022/10/17 04:30:02;;;;;;;12.80;9.90;;;;;;;12.98;75.36;97816.89;105020;1290;23578;-76
2022/10/17 04:32:36;;;;;;;12.00;8.80;;;;;;;12.99;75.18;97815.56;105080;1304;22518;-76
2022/10/17 04:35:08;;;;;;;12.30;8.70;;;;;;;13.00;75.13;97814.77;105100;1290;22611;-76
2022/10/17 04:37:40;;;;;;;12.90;9.60;;;;;;;13.00;75.08;97821.89;105091;1305;22859;-76
2022/10/17 04:40:13;;;;;;;10.40;7.70;;;;;;;13.03;74.99;97821.52;104979;1305;22527;-76
2022/10/17 04:42:44;;;;;;;12.70;9.70;;;;;;;12.99;74.93;97817.31;104939;1307;24517;-77
2022/10/17 04:45:15;;;;;;;12.20;9.10;;;;;;;12.93;74.98;97819.70;105017;1297;22476;-76
2022/10/17 04:47:46;;;;;;;13.50;9.00;;;;;;;12.85;75.05;97821.17;104973;1291;22474;-76
2022/10/17 04:50:18;;;;;;;11.70;9.20;;;;;;;12.78;75.19;97813.70;104949;1305;22525;-76
2022/10/17 04:52:49;;;;;;;12.30;9.50;;;;;;;12.74;75.38;97814.75;104963;1290;22504;-76
2022/10/17 04:55:21;;;;;;;10.90;8.50;;;;;;;12.68;75.37;97815.39;104981;1304;22492;-76
2022/10/17 04:57:53;;;;;;;15.80;10.20;;;;;;;12.62;75.61;97816.31;104991;1305;24325;-76
2022/10/17 05:00:24;;;;;;;12.20;8.40;;;;;;;12.59;75.67;97822.27;104943;1305;25302;-76
2022/10/17 05:02:55;;;;;;;12.40;9.40;;;;;;;12.60;75.98;97829.83;104984;1289;22474;-76
2022/10/17 05:05:27;;;;;;;12.50;8.50;;;;;;;12.59;76.06;97831.63;105000;1284;22485;-76
2022/10/17 05:07:59;;;;;;;13.40;9.20;;;;;;;12.63;76.06;97838.83;104996;1297;22525;-76
2022/10/17 05:10:31;;;;;;;12.10;9.60;;;;;;;12.73;76.15;97840.09;104959;1283;22527;-76
2022/10/17 05:13:02;;;;;;;12.70;7.90;;;;;;;12.78;75.80;97838.45;104982;1298;22483;-76
2022/10/17 05:15:33;;;;;;;12.60;7.70;;;;;;;12.78;75.77;97842.97;105029;1290;25416;-76
2022/10/17 05:18:08;;;;;;;11.20;8.50;;;;;;;12.73;75.80;97840.57;104975;1305;22545;-76
2022/10/17 05:20:39;;;;;;;12.10;9.10;;;;;;;12.70;75.78;97841.41;104950;1298;24333;-76
2022/10/17 05:23:10;;;;;;;12.00;9.70;;;;;;;12.63;75.89;97838.92;104999;1305;22474;-76
2022/10/17 05:25:42;;;;;;;12.60;9.40;;;;;;;12.56;76.17;97838.06;104998;1290;25471;-76
2022/10/17 05:28:13;;;;;;;14.00;8.50;;;;;;;12.56;76.27;97846.15;104993;1290;22646;-76
2022/10/17 05:30:47;;;;;;;12.30;9.20;;;;;;;12.75;76.54;97843.17;105008;1301;22726;-76
2022/10/17 05:33:18;;;;;;;11.40;9.50;;;;;;;13.08;76.06;97847.90;105023;1281;22493;-77
2022/10/17 05:35:49;;;;;;;10.60;8.60;;;;;;;13.43;75.39;97846.84;105056;1287;22470;-76
2022/10/17 05:38:20;;;;;;;10.60;8.20;;;;;;;13.74;74.39;97841.88;105033;1291;22499;-76
2022/10/17 05:40:51;;;;;;;11.70;8.70;;;;;;;14.02;73.25;97850.91;104992;1291;22523;-77
2022/10/17 05:43:22;;;;;;;10.80;8.30;;;;;;;14.29;72.35;97854.80;105019;1297;22476;-77
2022/10/17 05:45:54;;;;;;;10.60;8.50;;;;;;;14.61;71.82;97858.61;105008;1305;22468;-77
2022/10/17 05:48:25;;;;;;;12.30;8.60;;;;;;;15.00;70.70;97863.71;104953;1283;24197;-77
2022/10/17 05:51:01;;;;;;;10.60;8.10;;;;;;;15.24;69.82;97866.61;104939;1296;22481;-77
2022/10/17 05:53:34;;;;;;;10.70;8.60;;;;;;;15.51;68.58;97870.81;104996;1305;25466;-77
2022/10/17 05:56:11;;;;;;;10.50;8.60;;;;;;;15.77;68.19;97871.81;105009;1280;25342;-77
2022/10/17 05:58:46;;;;;;;9.20;8.10;;;;;;;16.16;67.29;97870.42;104917;1305;22489;-77
2022/10/17 06:01:18;;;;;;;9.40;8.00;;;;;;;16.54;66.55;97873.36;104967;1291;22645;-77
2022/10/17 06:03:52;;;;;;;10.90;8.20;;;;;;;16.78;65.14;97872.23;104960;1305;24251;-77
2022/10/17 06:06:23;;;;;;;10.60;8.20;;;;;;;17.16;64.95;97873.92;104958;1299;22462;-77
2022/10/17 06:08:54;;;;;;;12.30;8.50;;;;;;;17.37;62.87;97876.27;104943;1290;23918;-77
2022/10/17 06:11:25;;;;;;;8.90;6.90;;;;;;;17.43;62.10;97876.54;105055;1284;25393;-78
2022/10/17 06:13:56;;;;;;;8.90;6.10;;;;;;;17.60;61.59;97871.55;105030;1292;22475;-78
2022/10/17 06:16:28;;;;;;;9.70;7.10;;;;;;;17.77;60.60;97876.09;105020;1289;22952;-78
2022/10/17 06:18:59;;;;;;;9.40;7.60;;;;;;;17.91;59.88;97874.75;105022;1284;22959;-78
2022/10/17 06:21:33;;;;;;;8.90;7.50;;;;;;;17.97;58.96;97878.42;105015;1305;22465;-78
2022/10/17 06:24:04;;;;;;;8.20;6.50;;;;;;;18.24;59.15;97880.81;105040;1305;22480;-77
2022/10/17 06:26:35;;;;;;;11.10;7.40;;;;;;;18.51;57.75;97878.52;104982;1298;22471;-78
2022/10/17 06:29:07;;;;;;;11.60;8.00;;;;;;;18.37;56.36;97879.97;104969;1305;22526;-78
2022/10/17 06:31:39;;;;;;;13.40;6.90;;;;;;;18.29;57.04;97889.14;105064;1289;22534;-78
2022/10/17 06:34:10;;;;;;;8.80;7.00;;;;;;;18.47;56.12;97891.45;105015;1292;22586;-78
2022/10/17 06:36:41;;;;;;;10.00;7.60;;;;;;;18.45;56.10;97897.22;105035;1289;23714;-78
2022/10/17 06:39:12;;;;;;;9.30;7.40;;;;;;;18.76;55.98;97905.89;104976;1305;22708;-78
2022/10/17 06:41:44;;;;;;;7.80;6.80;;;;;;;18.94;55.54;97902.52;105011;1305;24878;-79
2022/10/17 06:44:15;;;;;;;8.20;7.20;;;;;;;19.07;54.55;97916.02;104983;1306;23794;-78
2022/10/17 06:46:46;;;;;;;10.50;7.10;;;;;;;19.12;54.49;97907.35;104956;1305;22472;-78
2022/10/17 06:49:17;;;;;;;8.90;6.50;;;;;;;19.40;54.59;97907.27;104966;1305;24242;-79
2022/10/17 06:51:48;;;;;;;8.90;7.80;;;;;;;19.66;53.92;97909.08;105086;1305;22486;-79
2022/10/17 06:54:20;;;;;;;8.90;7.30;;;;;;;19.87;53.71;97909.33;105034;1304;22594;-79
2022/10/17 06:56:51;;;;;;;8.80;6.80;;;;;;;20.02;53.29;97908.85;105110;1296;22526;-79
2022/10/17 06:59:24;;;;;;;8.60;7.10;;;;;;;20.61;53.34;97916.84;105008;1291;27455;-79
2022/10/17 07:01:55;;;;;;;10.50;7.20;;;;;;;20.85;52.27;97922.70;105068;1300;22474;-79
2022/10/17 07:04:37;;;;;;;8.10;7.10;;;;;;;21.11;51.82;97913.73;104980;1305;22481;-79
2022/10/17 07:07:09;;;;;;;9.50;7.20;;;;;;;21.14;50.23;97915.17;104996;1291;22489;-79
2022/10/17 07:09:40;;;;;;;7.50;6.70;;;;;;;20.74;50.04;97919.11;104893;1305;22501;-79
2022/10/17 07:12:11;;;;;;;8.50;7.60;;;;;;;20.62;50.65;97922.62;105011;1305;22484;-79
2022/10/17 07:14:45;;;;;;;10.80;7.10;;;;;;;20.71;50.74;97925.44;104962;1302;22550;-78
2022/10/17 07:17:20;;;;;;;8.90;7.30;;;;;;;20.95;50.18;97921.02;104997;1289;22523;-77
2022/10/17 07:19:51;;;;;;;9.10;6.80;;;;;;;21.00;49.94;97922.47;105034;1279;24466;-78
2022/10/17 07:22:22;;;;;;;9.00;7.60;;;;;;;21.21;49.96;97915.79;105104;1279;22978;-80
2022/10/17 07:24:53;;;;;;;7.60;6.80;;;;;;;21.08;49.20;97921.91;105056;1297;22598;-79
2022/10/17 07:27:24;;;;;;;9.10;6.90;;;;;;;21.08;49.64;97919.97;105110;1291;26500;-79
2022/10/17 07:29:55;;;;;;;8.20;7.40;;;;;;;21.17;49.79;97925.77;105009;1300;22478;-79
2022/10/17 07:32:29;;;;;;;9.00;7.20;;;;;;;21.38;48.78;97924.14;105006;1290;22950;-79
2022/10/17 07:35:00;;;;;;;8.60;7.10;;;;;;;21.20;49.06;97922.59;104971;1299;22475;-79
2022/10/17 07:37:31;;;;;;;9.50;7.30;;;;;;;21.16;49.11;97923.13;105017;1297;22531;-79
2022/10/17 07:40:03;;;;;;;8.00;7.20;;;;;;;20.97;49.06;97924.06;104969;1297;22513;-79
2022/10/17 07:42:36;;;;;;;10.00;7.60;;;;;;;20.91;49.23;97926.30;105029;1294;22515;-79
2022/10/17 07:45:09;;;;;;;9.20;8.30;;;;;;;20.91;49.45;97921.55;105044;1299;25500;-79
2022/10/17 07:47:40;;;;;;;8.20;7.30;;;;;;;21.32;50.00;97927.10;105060;1302;22652;-79
2022/10/17 07:50:12;;;;;;;10.10;8.30;;;;;;;22.02;48.91;97927.48;105007;1280;22488;-79
2022/10/17 07:52:44;;;;;;;9.10;7.10;;;;;;;22.26;47.99;97926.33;105088;1305;22476;-79
2022/10/17 07:55:15;;;;;;;7.90;6.90;;;;;;;22.31;47.41;97937.73;105142;1297;22483;-79
2022/10/17 07:57:46;;;;;;;9.80;6.80;;;;;;;22.39;47.86;97935.01;105118;1305;22480;-78
2022/10/17 08:00:17;;;;;;;9.10;7.40;;;;;;;22.54;47.00;97927.42;105263;1300;27822;-79
2022/10/17 08:02:49;;;;;;;8.30;7.40;;;;;;;22.45;46.73;97935.61;105077;1305;22457;-79
2022/10/17 08:05:20;;;;;;;8.90;7.60;;;;;;;22.57;48.17;97935.58;105066;1281;22477;-79
2022/10/17 08:07:52;;;;;;;8.90;7.40;;;;;;;23.51;47.92;97932.42;105029;1289;22500;-79
2022/10/17 08:10:26;;;;;;;12.70;7.00;;;;;;;23.72;46.16;97935.30;104994;1297;24120;-79
2022/10/17 08:12:58;;;;;;;8.60;7.30;;;;;;;23.92;46.04;97937.05;105026;1290;25015;-79
2022/10/17 08:15:30;;;;;;;9.90;7.60;;;;;;;23.70;45.49;97935.00;104994;1290;22632;-79
2022/10/17 08:18:01;;;;;;;8.40;7.50;;;;;;;23.43;46.05;97937.14;105075;1289;22701;-79
2022/10/17 08:20:32;;;;;;;12.20;7.00;;;;;;;23.19;46.24;97939.77;105017;1305;22501;-79
2022/10/17 08:23:03;;;;;;;8.80;7.60;;;;;;;23.23;46.78;97934.52;105088;1290;22553;-79
2022/10/17 08:25:38;;;;;;;9.90;7.60;;;;;;;23.19;46.67;97935.69;105096;1291;22536;-79
2022/10/17 08:28:09;;;;;;;10.70;7.30;;;;;;;23.47;46.92;97934.96;105106;1296;22576;-78
2022/10/17 08:30:40;;;;;;;9.80;7.80;;;;;;;23.60;46.56;97930.29;105068;1304;24092;-79
2022/10/17 08:33:13;;;;;;;9.70;7.40;;;;;;;23.48;45.87;97935.25;105052;1290;22474;-78
2022/10/17 08:35:47;;;;;;;9.90;7.50;;;;;;;22.79;46.03;97941.13;105084;1298;22470;-78
2022/10/17 08:38:18;;;;;;;9.60;7.10;;;;;;;22.16;46.27;97942.41;105130;1297;22557;-79
2022/10/17 08:40:50;;;;;;;9.30;8.20;;;;;;;21.43;47.67;97944.97;105057;1305;32749;-78
2022/10/17 08:43:36;;;;;;;9.30;6.90;;;;;;;21.27;48.85;97943.84;105055;1289;22466;-78
2022/10/17 08:46:09;;;;;;;8.90;7.40;;;;;;;21.07;49.20;97948.02;105101;1304;24291;-79
2022/10/17 08:48:45;;;;;;;9.60;8.00;;;;;;;20.83;49.47;97945.77;104978;1279;22479;-79
2022/10/17 08:51:19;;;;;;;9.50;7.90;;;;;;;20.66;49.95;97949.90;105016;1304;22463;-79
2022/10/17 08:53:55;;;;;;;10.50;7.90;;;;;;;20.43;50.52;97952.11;104971;1291;22460;-79
2022/10/17 08:56:30;;;;;;;11.10;8.00;;;;;;;20.34;50.98;97951.84;104995;1305;22521;-79
2022/10/17 08:59:01;;;;;;;10.10;7.80;;;;;;;20.25;51.34;97955.14;104952;1298;28913;-79
2022/10/17 09:01:39;;;;;;;10.50;8.40;;;;;;;20.26;51.91;97956.49;105032;1305;22511;-79
2022/10/17 09:04:30;;;;;;;9.60;7.70;;;;;;;20.06;51.46;97957.59;105060;1305;22475;-79
2022/10/17 09:07:12;;;;;;;10.20;8.20;;;;;;;19.84;52.73;97963.16;105090;1288;22564;-79
2022/10/17 09:09:55;;;;;;;10.30;7.90;;;;;;;19.97;52.48;97960.62;104977;1297;25666;-79
2022/10/17 09:12:33;;;;;;;9.30;8.10;;;;;;;20.08;52.54;97957.48;105004;1297;26671;-79
2022/10/17 09:15:23;;;;;;;10.10;8.70;;;;;;;20.18;52.97;97953.52;104985;1305;22468;-79
2022/10/17 09:18:00;;;;;;;9.30;7.70;;;;;;;20.09;52.56;97954.88;104987;1305;22479;-79
2022/10/17 09:20:36;;;;;;;10.20;8.10;;;;;;;20.12;52.68;97959.69;104921;1303;22471;-79
2022/10/17 09:23:16;;;;;;;9.40;7.70;;;;;;;20.24;52.25;97952.95;104970;1290;22489;-79
2022/10/17 09:25:49;;;;;;;9.90;8.90;;;;;;;20.39;52.14;97953.97;104989;1305;22528;-79
2022/10/17 09:28:26;;;;;;;8.80;7.20;;;;;;;20.41;51.54;97960.78;104994;1306;22471;-79
2022/10/17 09:31:04;;;;;;;10.90;8.80;;;;;;;20.24;51.55;97957.01;105016;1305;22486;-79
2022/10/17 09:33:39;;;;;;;9.70;7.20;;;;;;;20.15;51.83;97963.67;105004;1305;25962;-79
2022/10/17 09:36:14;;;;;;;11.50;8.80;;;;;;;20.04;52.19;97959.64;105033;1305;25369;-79
2022/10/17 09:38:48;;;;;;;11.70;8.90;;;;;;;20.00;52.15;97966.30;104971;1305;22496;-79
2022/10/17 09:41:23;;;;;;;12.20;8.60;;;;;;;19.93;52.44;97965.54;105109;1281;22483;-79
2022/10/17 09:43:58;;;;;;;10.90;8.60;;;;;;;19.85;52.49;97966.97;105121;1305;22469;-79
2022/10/17 09:46:37;;;;;;;9.70;8.20;;;;;;;19.93;52.95;97966.67;105087;1305;24254;-79
2022/10/17 09:49:18;;;;;;;14.20;8.70;;;;;;;19.97;53.11;97967.02;104980;1290;24150;-79
2022/10/17 09:51:49;;;;;;;11.70;8.60;;;;;;;20.09;53.16;97960.36;105010;1298;22507;-79
2022/10/17 09:54:24;;;;;;;12.30;8.60;;;;;;;20.15;53.22;97960.39;104984;1300;24517;-78
2022/10/17 09:57:06;;;;;;;9.90;8.10;;;;;;;20.13;53.10;97958.71;105008;1290;22981;-78
2022/10/17 09:59:39;;;;;;;10.20;7.40;;;;;;;20.10;53.01;97960.39;104991;1297;22489;-78
2022/10/17 10:02:22;;;;;;;10.20;8.00;;;;;;;20.04;52.88;97961.89;105015;1290;25335;-79
2022/10/17 10:05:00;;;;;;;10.20;8.40;;;;;;;20.04;53.24;97960.23;104988;1284;22472;-78
2022/10/17 10:07:33;;;;;;;10.20;7.70;;;;;;;20.19;53.29;97957.77;105006;1305;22470;-78
2022/10/17 10:10:10;;;;;;;10.00;8.10;;;;;;;20.20;53.03;97961.08;104993;1291;24293;-78
2022/10/17 10:12:43;;;;;;;10.70;8.10;;;;;;;20.27;53.54;97959.77;105069;1289;22489;-78
2022/10/17 10:15:36;;;;;;;10.60;8.20;;;;;;;20.40;53.52;97957.89;105067;1299;23223;-78
2022/10/17 10:18:29;;;;;;;9.20;7.60;;;;;;;20.50;53.40;97961.20;105067;1297;22469;-78
2022/10/17 10:21:13;;;;;;;12.90;8.40;;;;;;;20.60;53.23;97962.11;105004;1290;22483;-79
2022/10/17 10:23:45;;;;;;;10.00;7.70;;;;;;;20.61;53.05;97962.54;104987;1306;22516;-79
2022/10/17 10:26:29;;;;;;;9.90;8.00;;;;;;;20.64;53.16;97964.05;104991;1298;22540;-78
2022/10/17 10:29:03;;;;;;;9.40;7.90;;;;;;;20.76;53.67;97958.95;104965;1304;22523;-78
2022/10/17 10:31:37;;;;;;;10.70;7.80;;;;;;;20.90;52.98;97960.27;105057;1304;22946;-79
2022/10/17 10:34:24;;;;;;;11.00;7.70;;;;;;;20.79;52.11;97956.23;105077;1299;22478;-79
2022/10/17 10:37:04;;;;;;;10.20;8.50;;;;;;;20.74;52.11;97956.79;105075;1305;22524;-79
2022/10/17 10:39:41;;;;;;;11.10;8.20;;;;;;;20.70;52.11;97954.08;105001;1289;25228;-78
2022/10/17 10:42:24;;;;;;;9.50;8.20;;;;;;;20.68;51.93;97952.25;104979;1299;22529;-78
2022/10/17 10:44:58;;;;;;;8.30;7.20;;;;;;;20.75;52.30;97949.59;105023;1299;22528;-78
2022/10/17 10:47:30;;;;;;;9.60;7.70;;;;;;;20.91;52.59;97947.34;104978;1296;22564;-79
2022/10/17 10:50:24;;;;;;;9.30;7.40;;;;;;;20.97;51.71;97944.40;105005;1284;22458;-79
2022/10/17 10:53:05;;;;;;;11.00;8.00;;;;;;;20.98;51.98;97945.84;105013;1283;22541;-79
2022/10/17 10:55:41;;;;;;;12.10;7.80;;;;;;;21.15;52.05;97952.20;105042;1305;22649;-79
2022/10/17 10:58:24;;;;;;;9.20;6.70;;;;;;;21.24;52.06;97940.55;105082;1290;22467;-79
2022/10/17 11:00:57;;;;;;;8.60;7.30;;;;;;;21.34;51.23;97939.94;105056;1305;33568;-79
2022/10/17 11:03:36;;;;;;;9.10;7.60;;;;;;;21.30;52.03;97943.38;105053;1305;22985;-79
2022/10/17 11:06:17;;;;;;;9.70;7.70;;;;;;;21.43;51.87;97944.19;105054;1290;25227;-79
2022/10/17 11:08:51;;;;;;;9.70;7.30;;;;;;;21.46;51.13;97939.08;105059;1294;22476;-78
2022/10/17 11:11:41;;;;;;;8.40;7.20;;;;;;;21.44;51.11;97937.23;104986;1305;22682;-79
2022/10/17 11:14:18;;;;;;;8.50;6.90;;;;;;;21.49;50.87;97934.34;104982;1305;22497;-79
2022/10/17 11:16:55;;;;;;;9.80;7.30;;;;;;;21.48;51.00;97939.77;104963;1305;22485;-79
2022/10/17 11:19:32;;;;;;;8.80;7.40;;;;;;;21.53;51.02;97935.17;104976;1290;23238;-78
2022/10/17 11:22:15;;;;;;;9.40;7.10;;;;;;;21.55;50.85;97933.66;105008;1305;22498;-78
2022/10/17 11:24:55;;;;;;;8.20;7.20;;;;;;;21.55;50.89;97932.52;104929;1292;22474;-79
2022/10/17 11:27:25;;;;;;;;;;;;;;;21.67;51.20;97931.67;105042;1305;22438;-79
2022/10/17 11:29:57;;;;;;;9.90;7.50;;;;;;;21.76;51.22;97928.49;104950;1291;22791;-79
2022/10/17 11:32:35;;;;;;;7.40;6.20;;;;;;;21.93;51.17;97930.24;105040;1297;22474;-79
2022/10/17 11:35:16;;;;;;;10.20;7.50;;;;;;;22.00;50.76;97936.08;105038;1284;25396;-79
2022/10/17 11:37:52;;;;;;;10.10;7.30;;;;;;;22.03;50.68;97934.95;105056;1284;23394;-79
2022/10/17 11:40:29;;;;;;;9.50;7.60;;;;;;;21.98;50.96;97932.52;104972;1305;26530;-79
2022/10/17 11:43:04;;;;;;;8.90;7.10;;;;;;;22.01;50.53;97933.09;104978;1284;22475;-79
2022/10/17 11:45:40;;;;;;;8.80;7.10;;;;;;;21.98;50.67;97926.80;105002;1300;22481;-79
2022/10/17 11:48:20;;;;;;;9.60;6.90;;;;;;;21.93;50.66;97927.67;104984;1305;22540;-79
2022/10/17 11:50:57;;;;;;;10.70;7.00;;;;;;;22.00;50.81;97924.73;105023;1305;32748;-79
2022/10/17 11:53:34;;;;;;;8.00;6.30;;;;;;;22.08;50.80;97925.35;105038;1300;22482;-79